Arviat, Canada
Current Conditions -  °F | °C
As of 3:04 AM on Tuesday 21 Oct 2014 (Local Time) from CYEK Reporting Station
Overcast Overcast  
Wind Chill: 21°   Ceiling: 600
Heat Index: 34°   Visibility: 9mi
Dew Point: 34°   Wind: 25mph
Humidity: 100%   Direction: 180°S
Pressure: 29.79"   Gusts: 31mph
Location:  61.12°N, 94.05°W
Report Text: CYEK 210804Z AUTO 18022G27KT 9SM OVC006 01/01 A2979 RMK SLP087
Loading
Personal Weather Stations






























Interactive Weather Map
Tropical Storm Tracking
New forecast layout! Learn more

10-Day Weather Forecast

Advertisements
Track Severe Weather on mobile